Center Banner
 

St. Patricks Day 5k / 10k

Age Group Results

March 18, 2017


Results by Integrity Racing 1-800-214-2186


5K Run Men: Top Finishers 1-10 11-14 15-19 20-29 30-39 40-49 50-55 56-99
5K Run Women: Top Finishers 1-10 11-14 15-19 20-29 30-39 40-49 50-55 56-99
10K Run Men: Top Finishers 1-10 11-14 20-29 30-39 40-49 50-55 56-99
10K Run Women: Top Finishers 20-29 30-39 40-49 56-99

5K Run

Top

Male Open Winners

Place Name City Bib No Age Overall Total Time Pace
1 JOE KOHLER WARRIORS MARK 98 17 1 18:33.37 5:59/M
Top

Female Open Winners

Place Name City Bib No Age Overall Total Time Pace
1 COLLEEN KELLY ALTOONA 95 24 8 22:24.20 7:14/M
Top

Male 10 and Under

Place Name City Bib No Age Overall Total Time Pace
1 TRENT SMITH ALEXANDRIA 540 9 67 34:25.97 11:06/M
2 WYATT PRICE TYRONE 529 9 76 36:28.66 11:46/M
3 AIDEN LEWIS TYRONE 503 9 90 45:42.15 14:45/M
Top

Female 10 and Under

Place Name City Bib No Age Overall Total Time Pace
1 LILY MCNELIS BELLWOOD 512 8 74 36:03.16 11:38/M
2 AUBRIANNA BORING TYRONE 62 10 78 38:26.59 12:24/M
3 CADENCE DIEHL 819 10 82 42:36.54 13:45/M
Top

Male 11 to 14

Place Name City Bib No Age Overall Total Time Pace
1 BRAYDEN HENNINGER ALTOONA 86 14 2 18:40.35 6:01/M
2 AJ KILMARTIN 812 13 4 20:52.99 6:44/M
3 LIAM CLYMA ALTOONA 72 14 5 20:58.88 6:46/M
4 IAN IMLER 808 13 6 21:08.26 6:49/M
5 HAYES JONES MORRISDALE 94 14 7 22:21.75 7:13/M
6 COUPER KERNS 818 14 11 23:24.20 7:33/M
7 ISAIAH MITCHELL MC VEYTOWN 516 11 18 24:28.21 7:54/M
8 KELTON RAABE WARRIORS MARK 530 13 28 26:31.50 8:33/M
9 IAN DICKEN ALTOONA 73 12 50 29:21.65 9:28/M
Top

Female 11 to 14

Place Name City Bib No Age Overall Total Time Pace
1 MARISSA LEWIS 816 12 16 24:23.72 7:52/M
2 CHESNEY SALTSGIVER 807 14 29 26:35.39 8:35/M
3 MAKENNA BAUER WARRIORS MARK 59 13 31 26:37.45 8:35/M
4 EMMA GETZ 815 13 32 26:38.88 8:35/M
5 LINDSEY PARKS 810 12 41 28:16.13 9:07/M
6 LAURA KOHLER WARRIORS MARK 99 14 45 28:35.34 9:13/M
Top

Male 15 to 19

Place Name City Bib No Age Overall Total Time Pace
1 ZACHARY KOHLER WARRIORS MARK 100 15 3 19:15.37 6:13/M
2 QUINTIN NELSON ALTOONA 521 15 12 23:55.57 7:43/M
3 MAXIME MOTTET STATE COLLEGE 517 18 75 36:25.41 11:45/M
Top

Female 15 to 19

Place Name City Bib No Age Overall Total Time Pace
1 MARIA BARNUEVO TYRONE 55 17 66 33:57.24 10:57/M
2 TAYLOR BUTTERBAUGH STATE COLLEGE 65 17 65 33:57.24 10:57/M
Top

Male Age 20

Place Name City Bib No Age Overall Total Time Pace
1 KYLE SUNSERI TYRONE 543 23 26 26:26.80 8:32/M
2 KYLE UPDYKE TYRONE 549 26 48 28:40.64 9:15/M
3 NICHOLAS BROOKS STATE COLLEGE 63 22 88 45:19.51 14:37/M
Top

Female 20 to 29

Place Name City Bib No Age Overall Total Time Pace
1 SARAH COX 820 26 19 24:53.41 8:02/M
2 JESSICA MARKEL TYRONE 507 26 47 28:39.87 9:15/M
3 CHELSEY MARKEL TYRONE 506 26 54 30:15.62 9:45/M
4 GRACE MCKERNAN WARRIORS MARK 510 20 58 31:20.33 10:06/M
5 TORY MIKSIEWICZ CLUGSTON TYRONE 514 29 64 33:21.23 10:45/M
6 AMANDA HOUSTON TYRONE 90 27 70 35:20.83 11:24/M
7 KATIE SCHMIDT SLIPPERY ROCK 533 23 89 45:19.71 14:37/M
8 KASSI CARPER PHILIPSBURG 68 23 94 53:21.12 17:13/M
9 MELISSA FINK TYRONE 75 29 93 53:21.12 17:13/M
Top

Male 30 to 39

Place Name City Bib No Age Overall Total Time Pace
1 AARON CARRICO WARRIORS MARK 69 31 17 24:28.11 7:54/M
2 CURTIS MILLER TYRONE 515 31 21 24:59.77 8:04/M
3 SEAN ANKENY ALTOONA 52 33 25 26:25.98 8:31/M
4 AARON TIPPETT TYRONE 545 30 27 26:26.81 8:32/M
5 DAVID MCCAHAN BELLWOOD 509 35 34 26:58.90 8:42/M
6 CHRISTOPHER CLUGSTON TYRONE 71 34 38 27:55.36 9:00/M
7 MATT GERMINO TYRONE 79 32 51 29:27.22 9:30/M
8 MARVIN FRAZELL TYRONE 78 36 59 32:01.21 10:20/M
9 TIM SMITH ALEXANDRIA 539 36 68 34:26.38 11:06/M
10 TIM WISNIENSKI 821 35 97 58:30.20 18:52/M
11 MARK WISNIENSKI 822 32 98 58:30.96 18:52/M
Top

Female 30 to 39

Place Name City Bib No Age Overall Total Time Pace
1 REBECCA JACKSON PORT MATILDA 92 37 14 24:22.88 7:52/M
2 MEGAN MIGNOT STATE COLLEGE 513 32 20 24:56.72 8:03/M
3 KATIE BATEMAN STATE COLLEGE 56 34 37 27:45.61 8:57/M
4 CHRISTINE WOOMER TYRONE 803 31 40 28:13.29 9:06/M
5 SARAH KRUPP STATE COLLEGE 501 38 44 28:30.86 9:12/M
6 NAOMI RADIO STATE COLLEGE 531 34 43 28:30.86 9:12/M
7 ROSANNE LEWIS TYRONE 504 35 46 28:39.35 9:15/M
8 MARY WALKER TYRONE 801 36 49 29:20.64 9:28/M
9 MELISSA WELKER TYRONE 802 33 61 32:59.15 10:38/M
10 MEGAN BEAVER JAMES CREEK 60 33 69 35:11.43 11:21/M
11 TIFFANY MAYHEW TYRONE 508 35 71 35:41.69 11:31/M
12 ERICA JONES SPRINGFIELD 93 37 73 36:02.91 11:37/M
13 CYNDI LINGENFELTER CLAYSBURG 505 35 80 40:45.85 13:09/M
14 STEPHANIE HARN ALTOONA 84 34 81 41:28.92 13:23/M
15 TANIA GERMINO TYRONE 80 30 83 42:48.98 13:48/M
16 AMBER PORT WILLIAMSBURG 528 32 84 44:31.68 14:22/M
17 DANIELLE HART ALUM BANK 85 34 85 44:32.93 14:22/M
18 TAMARA TRUNZO ALEXANDRIA 548 34 92 53:10.87 17:09/M
19 LEEANNA HOOPER STATE COLLEGE 89 33 95 54:55.45 17:43/M
Top

Male 40 to 49

Place Name City Bib No Age Overall Total Time Pace
1 MARC LAUBER HOLLIDAYSBURG 502 42 13 24:09.63 7:47/M
2 DEAN KOHLER WARRIORS MARK 97 42 15 24:23.63 7:52/M
3 TIM CALDANA MOSHANNON 67 48 23 25:49.88 8:20/M
4 STEVE NELSON ALTOONA 522 41 42 28:26.96 9:10/M
5 WILLIAM ASTORE TYRONE 53 41 72 35:43.51 11:31/M
Top

Female 40 to 49

Place Name City Bib No Age Overall Total Time Pace
1 WENDY REED ALTOONA 532 46 22 25:06.90 8:06/M
2 BRENDA BENNINGHOFF PHILIPSBURG 603 44 30 26:35.60 8:35/M
3 KRISTIE BAUER WARRIORS MARK 58 45 33 26:40.50 8:36/M
4 DUSTY SHARER TYRONE 537 40 36 27:41.65 8:56/M
5 PATRICIA CASWELL TYRONE 70 49 39 28:06.39 9:04/M
6 EVA TOTH 809 42 53 30:08.88 9:43/M
7 JILL SUTT ALTOONA 544 46 56 30:33.25 9:51/M
8 JULIE WALK TYRONE 550 48 57 30:54.86 9:58/M
9 TAMMY TOPAR TYRONE 546 46 63 33:18.77 10:45/M
10 JULIE BERLINER BELLWOOD 61 42 77 37:41.16 12:09/M
11 MARCY HERZOG ALTOONA 87 41 86 44:39.68 14:24/M
12 WENDY BUSH TYRONE 64 45 87 44:39.89 14:24/M
13 TINA KUNSTBECK 646 42 91 46:00.54 14:50/M
Top

Male 50 to 55

Place Name City Bib No Age Overall Total Time Pace
1 FRANK HAHN LANSE 82 54 10 22:49.31 7:22/M
2 CHARLES TRAVIS HOUTZDALE 547 55 35 27:09.89 8:45/M
Top

Female 50 to 55

Place Name City Bib No Age Overall Total Time Pace
1 SUE SCOTT TYRONE 534 52 24 26:16.21 8:28/M
2 CHRISTINE HESS MARTINSBURG 88 51 55 30:31.39 9:51/M
3 CAROLYN DSRUDSZ 817 55 62 33:00.90 10:39/M
Top

Male 56 and Over

Place Name City Bib No Age Overall Total Time Pace
1 JEFF HAHN FRENCHVILLE 83 60 9 22:25.18 7:14/M
2 JIM DEIHL 811 72 52 29:33.59 9:32/M
3 GARY BRADLEY 813 65 60 32:06.11 10:21/M
4 TR HARDI 652 56 96 57:02.95 18:24/M
Top

Female 56 and Over

Place Name City Bib No Age Overall Total Time Pace
1 BOBBI BOLLINGER 814 58 79 38:42.91 12:29/M
 

10K Run

Top

Male Open Winners

Place Name City Bib No Age Overall Total Time Pace
1 DEAN BANKO NEW FLORENCE 601 33 1 38:38.66 6:14/M
Top

Female Open Winners

Place Name City Bib No Age Overall Total Time Pace
1 LAUREN LEONARD HUNTINGDON 628 32 2 42:22.10 6:50/M
Top

Male 10 and Under

Place Name City Bib No Age Overall Total Time Pace
1 AIDEN DETWILER ALTOONA 611 10 27 55:24.20 8:56/M
Top

Male 11 to 14

Place Name City Bib No Age Overall Total Time Pace
1 A.J. DETWILER ALTOONA 610 12 28 55:24.20 8:56/M
Top

Male 20 to 29

Place Name City Bib No Age Overall Total Time Pace
1 KELLY SELL IMLER 637 28 3 43:48.91 7:04/M
Top

Female 20 to 29

Place Name City Bib No Age Overall Total Time Pace
1 BRITTNEY BAXTER JOHNSTOWN 602 29 31 56:04.20 9:03/M
2 BECKI SELL CLAYSBURG 636 27 35 58:32.19 9:26/M
3 ASHLEY DAVIDSON TYRONE 608 29 38 1:00:23.58 9:44/M
Top

Male 30 to 39

Place Name City Bib No Age Overall Total Time Pace
1 MIKE BRADLEY 650 39 6 44:12.93 7:08/M
2 RICKY KRUISE ALTOONA 626 33 9 48:31.68 7:50/M
3 KORY FISH PHILIPSBURG 618 32 13 50:10.61 8:05/M
Top

Female 30 to 39

Place Name City Bib No Age Overall Total Time Pace
1 RACHEL DETWILER ALTOONA 612 38 10 48:56.63 7:54/M
2 MANDY FISH PHILIPSBURG 619 35 11 49:02.34 7:55/M
3 DARCY HOUSEKNECHT 651 31 12 49:36.80 8:00/M
4 LISA SPRANKLE ALTOONA 641 35 15 51:33.19 8:19/M
5 WANDA RIMMER 649 32 21 53:30.26 8:38/M
6 KATE KILCOYNE ALTOONA 625 33 29 55:40.82 8:59/M
7 ASHLEY MILLER NORTHERN CAMBRIA 631 31 34 57:54.20 9:20/M
8 MONICA MAHONEY STATE COLLEGE 630 37 40 1:02:30.70 10:05/M
9 ERIN SWATSWORTH 648 36 41 1:03:00.47 10:10/M
10 JENNIFER LEGRAND HASTINGS 627 38 42 1:04:09.22 10:21/M
11 APRIL FALLON JOHNSTOWN 616 33 44 1:06:04.65 10:39/M
Top

Male 40 to 49

Place Name City Bib No Age Overall Total Time Pace
1 JASON SUTT ALTOONA 643 46 4 44:10.30 7:07/M
2 ERIC FEAGLEY HUNTINGDON 617 45 5 44:11.12 7:08/M
3 MICHAEL RHONE ALTOONA 633 49 17 52:13.56 8:25/M
4 SCOTT KENNEDY TYRONE 624 45 22 54:05.98 8:43/M
5 BEN HARADER 647 43 24 54:32.63 8:48/M
6 WESLEY PLANTHABER HUNTINGDON 632 48 26 55:21.32 8:56/M
7 BILL MAHONEY STATE COLLEGE 629 42 39 1:00:52.16 9:49/M
Top

Female 40 to 49

Place Name City Bib No Age Overall Total Time Pace
1 GINA GRAHAM CLEARFIELD 621 44 16 51:38.69 8:20/M
2 TERRI RHONE ALTOONA 634 48 20 53:00.64 8:33/M
3 PAM CODER ALTOONA 605 45 30 55:54.49 9:01/M
4 CAREEN SHAFER MAPLETON DEPOT 638 41 32 56:40.37 9:08/M
5 AMY GREENE ALTOONA 622 43 37 59:43.58 9:38/M
6 KELLY FOREMAN PHILIPSBURG 620 48 43 1:05:17.97 10:32/M
7 TERRY TOMORY NEW PARIS 644 48 45 1:10:07.15 11:19/M
8 RHONDA DEMCHAK PHILIPSBURG 609 46 46 1:10:55.23 11:26/M
Top

Male 50 to 55

Place Name City Bib No Age Overall Total Time Pace
1 DAVID HESS MARTINSBURG 623 55 18 52:32.44 8:28/M
2 CRAIG COVER ALTOONALTOONA 607 50 33 56:43.27 9:09/M
Top

Male 56 and Over

Place Name City Bib No Age Overall Total Time Pace
1 DANIEL DILLEN ALTOONA 613 56 7 46:00.68 7:25/M
2 MARVIN CONERLY PEMBROKE PINES 606 56 8 47:42.57 7:42/M
3 RICK EICHELBERGER HOPEWELL 615 62 14 51:22.62 8:17/M
4 THOMAS DNAIELS STATE COLLEGE 614 61 36 58:32.63 9:26/M
Top

Female 56 and Over

Place Name City Bib No Age Overall Total Time Pace
1 CINDI STANTON TYRONE 642 58 19 52:40.68 8:30/M
2 KAREN RODRIQUEZ LANCASTER 635 60 23 54:12.86 8:45/M
3 AMY BRISBIN TYRONE 604 57 25 54:44.89 8:50/M